createdAt,value
2022-09-28T00:01:25.146Z,8.80
2022-09-28T00:03:55.261Z,8.80
2022-09-28T00:06:26.712Z,8.90
2022-09-28T00:08:54.366Z,8.90
2022-09-28T00:11:23.541Z,8.90
2022-09-28T00:13:52.721Z,8.90
2022-09-28T00:16:23.163Z,9.00
2022-09-28T00:18:51.506Z,9.00
2022-09-28T00:21:24.535Z,9.00
2022-09-28T00:24:15.417Z,9.00
2022-09-28T00:26:45.724Z,9.00
2022-09-28T00:29:23.999Z,9.00
2022-09-28T00:32:02.459Z,9.00
2022-09-28T00:34:32.076Z,8.90
2022-09-28T00:37:00.134Z,8.90
2022-09-28T00:39:27.661Z,8.80
2022-09-28T00:41:55.306Z,8.80
2022-09-28T00:44:50.716Z,8.70
2022-09-28T00:47:45.626Z,8.70
2022-09-28T00:50:35.022Z,8.70
2022-09-28T00:53:23.032Z,8.60
2022-09-28T00:55:55.087Z,8.60
2022-09-28T00:58:31.562Z,8.60
2022-09-28T01:01:00.306Z,8.50
2022-09-28T01:03:29.337Z,8.50
2022-09-28T01:06:00.187Z,8.50
2022-09-28T01:08:29.382Z,8.50
2022-09-28T01:10:59.331Z,8.50
2022-09-28T01:13:28.540Z,8.40
2022-09-28T01:15:58.656Z,8.40
2022-09-28T01:18:34.748Z,8.40
2022-09-28T01:21:18.944Z,8.40
2022-09-28T01:24:17.277Z,8.40
2022-09-28T01:26:56.771Z,8.50
2022-09-28T01:30:01.388Z,8.40
2022-09-28T01:32:28.672Z,8.40
2022-09-28T01:35:21.940Z,8.40
2022-09-28T01:38:02.446Z,8.40
2022-09-28T01:40:32.413Z,8.40
2022-09-28T01:43:09.912Z,8.30
2022-09-28T01:45:51.040Z,8.30
2022-09-28T01:48:39.592Z,8.30
2022-09-28T01:51:30.162Z,8.30
2022-09-28T01:54:05.738Z,8.30
2022-09-28T01:56:40.796Z,8.20
2022-09-28T01:59:17.421Z,8.20
2022-09-28T02:01:56.731Z,8.20
2022-09-28T02:04:32.741Z,8.20
2022-09-28T02:07:09.312Z,8.10
2022-09-28T02:09:56.218Z,8.10
2022-09-28T02:13:00.659Z,8.10
2022-09-28T02:15:37.327Z,8.10
2022-09-28T02:18:05.093Z,8.00
2022-09-28T02:20:34.481Z,8.00
2022-09-28T02:23:04.220Z,8.00
2022-09-28T02:25:40.432Z,8.00
2022-09-28T02:28:11.724Z,8.00
2022-09-28T02:30:40.935Z,8.00
2022-09-28T02:33:19.378Z,8.00
2022-09-28T02:35:47.160Z,8.00
2022-09-28T02:38:15.277Z,7.90
2022-09-28T02:40:48.591Z,7.90
2022-09-28T02:43:34.675Z,7.90
2022-09-28T02:46:23.511Z,7.90
2022-09-28T02:49:20.426Z,7.90
2022-09-28T02:52:23.677Z,7.90
2022-09-28T02:54:53.870Z,8.00
2022-09-28T02:57:44.621Z,8.00
2022-09-28T03:00:18.230Z,8.00
2022-09-28T03:03:33.616Z,8.00
2022-09-28T03:06:07.847Z,8.00
2022-09-28T03:08:44.286Z,8.00
2022-09-28T03:11:24.028Z,8.00
2022-09-28T03:13:52.644Z,8.00
2022-09-28T03:16:22.673Z,8.00
2022-09-28T03:18:50.040Z,8.00
2022-09-28T03:21:17.289Z,8.10
2022-09-28T03:23:44.613Z,8.10
2022-09-28T03:26:12.869Z,8.10
2022-09-28T03:28:40.875Z,8.20
2022-09-28T03:31:11.812Z,8.20
2022-09-28T03:33:38.971Z,8.20
2022-09-28T03:36:06.345Z,8.30
2022-09-28T03:38:33.818Z,8.30
2022-09-28T03:41:01.300Z,8.30
2022-09-28T03:43:34.453Z,8.40
2022-09-28T03:46:03.673Z,8.40
2022-09-28T03:48:36.536Z,8.40
2022-09-28T03:51:09.351Z,8.50
2022-09-28T03:53:37.074Z,8.50
2022-09-28T03:56:07.412Z,8.50
2022-09-28T03:58:34.972Z,8.50
2022-09-28T04:01:09.185Z,8.50
2022-09-28T04:03:38.186Z,8.50
2022-09-28T04:06:05.653Z,8.50
2022-09-28T04:08:32.996Z,8.50
2022-09-28T04:11:01.247Z,8.50
2022-09-28T04:13:30.135Z,8.50
2022-09-28T04:16:00.466Z,8.50
2022-09-28T04:18:30.194Z,8.50
2022-09-28T04:21:20.182Z,8.50
2022-09-28T04:23:55.760Z,8.50
2022-09-28T04:26:26.455Z,8.50
2022-09-28T04:29:12.229Z,8.50
2022-09-28T04:31:52.398Z,8.50
2022-09-28T04:34:22.706Z,8.50
2022-09-28T04:36:50.585Z,8.50
2022-09-28T04:39:19.537Z,8.50
2022-09-28T04:41:52.906Z,8.50
2022-09-28T04:44:20.332Z,8.50
2022-09-28T04:46:49.444Z,8.50
2022-09-28T04:49:28.657Z,8.50
2022-09-28T04:51:58.538Z,8.50
2022-09-28T04:54:25.854Z,8.60
2022-09-28T04:56:53.469Z,8.60
2022-09-28T04:59:20.557Z,8.60
2022-09-28T05:01:48.456Z,8.60
2022-09-28T05:04:34.375Z,8.60
2022-09-28T05:07:04.845Z,8.60
2022-09-28T05:09:35.009Z,8.60
2022-09-28T05:14:56.768Z,8.70
2022-09-28T05:17:24.330Z,8.70
2022-09-28T05:20:09.857Z,8.70
2022-09-28T05:22:37.082Z,8.70
2022-09-28T05:25:05.809Z,8.70
2022-09-28T05:27:44.212Z,8.70
2022-09-28T05:30:25.727Z,8.70
2022-09-28T05:33:11.596Z,8.70
2022-09-28T05:35:44.492Z,8.70
2022-09-28T05:38:11.947Z,8.70
2022-09-28T05:40:39.245Z,8.70
2022-09-28T05:43:06.499Z,8.70
2022-09-28T05:45:33.873Z,8.70
2022-09-28T05:48:02.943Z,8.80
2022-09-28T05:50:30.402Z,8.80
2022-09-28T05:53:04.856Z,8.80
2022-09-28T05:55:33.096Z,8.80
2022-09-28T05:58:06.616Z,8.80
2022-09-28T06:00:36.030Z,8.90
2022-09-28T06:03:10.411Z,8.90
2022-09-28T06:05:39.536Z,8.90
2022-09-28T06:08:08.533Z,9.00
2022-09-28T06:10:36.013Z,9.00
2022-09-28T06:13:03.357Z,9.00
2022-09-28T06:15:32.631Z,9.00
2022-09-28T06:18:04.492Z,9.00
2022-09-28T06:20:58.188Z,9.00
2022-09-28T06:23:32.930Z,9.10
2022-09-28T06:26:00.388Z,9.10
2022-09-28T06:28:28.152Z,9.10
2022-09-28T06:30:59.467Z,9.10
2022-09-28T06:33:26.977Z,9.10
2022-09-28T06:35:54.159Z,9.10
2022-09-28T06:38:21.607Z,9.10
2022-09-28T06:40:49.703Z,9.10
2022-09-28T06:43:17.189Z,9.10
2022-09-28T06:46:02.994Z,9.20
2022-09-28T06:48:42.792Z,9.10
2022-09-28T06:51:13.542Z,9.10
2022-09-28T06:54:09.972Z,9.10
2022-09-28T06:56:40.605Z,9.10
2022-09-28T06:59:07.758Z,9.10
2022-09-28T07:01:36.771Z,9.10
2022-09-28T07:04:13.564Z,9.10
2022-09-28T07:07:06.216Z,9.10
2022-09-28T07:10:06.540Z,9.10
2022-09-28T07:12:42.506Z,9.10
2022-09-28T07:15:24.869Z,9.10
2022-09-28T07:18:02.503Z,9.10
2022-09-28T07:20:35.434Z,9.20
2022-09-28T07:23:18.026Z,9.20
2022-09-28T07:26:09.020Z,9.30
2022-09-28T07:28:49.682Z,9.30
2022-09-28T07:31:40.666Z,9.40
2022-09-28T07:34:40.126Z,9.40
2022-09-28T07:37:15.663Z,9.50
2022-09-28T07:40:05.065Z,9.50
2022-09-28T07:42:36.323Z,9.50
2022-09-28T07:45:04.224Z,9.60
2022-09-28T07:47:35.019Z,9.60
2022-09-28T07:50:21.457Z,9.70
2022-09-28T07:53:02.043Z,9.70
2022-09-28T07:55:41.717Z,9.70
2022-09-28T07:58:13.982Z,9.80
2022-09-28T08:00:50.205Z,9.90
2022-09-28T08:03:20.298Z,9.90
2022-09-28T08:05:48.259Z,10.00
2022-09-28T08:08:16.243Z,10.00
2022-09-28T08:10:47.247Z,10.00
2022-09-28T08:13:41.385Z,10.10
2022-09-28T08:16:22.860Z,10.10
2022-09-28T08:18:57.901Z,10.20
2022-09-28T08:21:44.194Z,10.20
2022-09-28T08:24:17.063Z,10.20
2022-09-28T08:26:45.730Z,10.30
2022-09-28T08:29:17.115Z,10.30
2022-09-28T08:31:50.115Z,10.30
2022-09-28T08:34:41.695Z,10.40
2022-09-28T08:37:21.778Z,10.40
2022-09-28T08:40:25.896Z,10.40
2022-09-28T08:43:28.252Z,10.40
2022-09-28T08:46:02.692Z,10.50
2022-09-28T08:49:23.675Z,10.50
2022-09-28T08:52:13.764Z,10.60
2022-09-28T08:54:58.436Z,10.60
2022-09-28T08:57:42.488Z,10.70
2022-09-28T09:00:31.413Z,10.80
2022-09-28T09:02:59.298Z,10.90
2022-09-28T09:05:46.022Z,10.90
2022-09-28T09:08:34.554Z,11.00
2022-09-28T09:11:01.819Z,11.10
2022-09-28T09:14:18.525Z,11.20
2022-09-28T09:16:46.188Z,11.30
2022-09-28T09:19:40.439Z,11.30
2022-09-28T09:22:43.019Z,11.40
2022-09-28T09:25:21.808Z,11.40
2022-09-28T09:28:16.957Z,11.50
2022-09-28T09:30:51.631Z,11.40
2022-09-28T09:33:36.070Z,11.50
2022-09-28T09:36:41.350Z,11.50
2022-09-28T09:40:05.325Z,11.50
2022-09-28T09:43:33.782Z,11.50
2022-09-28T09:46:27.058Z,11.60
2022-09-28T09:49:45.695Z,11.60
2022-09-28T09:52:29.465Z,11.70
2022-09-28T09:55:14.803Z,11.70
2022-09-28T09:57:55.199Z,11.80
2022-09-28T10:00:34.828Z,11.80
2022-09-28T10:03:30.838Z,11.90
2022-09-28T10:06:27.570Z,12.00
2022-09-28T10:09:01.591Z,12.00
2022-09-28T10:11:36.207Z,12.10
2022-09-28T10:14:08.321Z,12.10
2022-09-28T10:16:39.005Z,12.20
2022-09-28T10:19:14.060Z,12.30
2022-09-28T10:22:04.947Z,12.30
2022-09-28T10:24:45.380Z,12.20
2022-09-28T10:27:19.248Z,12.20
2022-09-28T10:30:02.101Z,12.20
2022-09-28T10:32:41.040Z,12.20
2022-09-28T10:35:23.750Z,12.20
2022-09-28T10:38:07.530Z,12.20
2022-09-28T10:40:48.012Z,12.10
2022-09-28T10:43:27.336Z,12.10
2022-09-28T10:46:10.462Z,12.10
2022-09-28T10:48:51.529Z,12.10
2022-09-28T10:51:20.990Z,12.20
2022-09-28T10:54:01.918Z,12.20
2022-09-28T10:56:52.841Z,12.20
2022-09-28T10:59:48.957Z,12.20
2022-09-28T11:02:34.782Z,12.30
2022-09-28T11:05:27.998Z,12.30
2022-09-28T11:08:02.289Z,12.30
2022-09-28T11:10:37.398Z,12.20
2022-09-28T11:13:11.753Z,12.30
2022-09-28T11:15:44.221Z,12.20
2022-09-28T11:18:32.527Z,12.20
2022-09-28T11:21:12.388Z,12.10
2022-09-28T11:23:58.276Z,12.00
2022-09-28T11:26:25.980Z,11.80
2022-09-28T11:28:54.014Z,11.80
2022-09-28T11:31:32.228Z,11.70
2022-09-28T11:34:27.762Z,11.70
2022-09-28T11:37:14.428Z,11.60
2022-09-28T11:39:55.724Z,11.50
2022-09-28T11:42:43.407Z,11.60
2022-09-28T11:45:35.283Z,11.60
2022-09-28T11:48:05.386Z,11.60
2022-09-28T11:50:52.015Z,11.70
2022-09-28T11:53:24.922Z,11.70
2022-09-28T11:55:59.577Z,11.70
2022-09-28T11:58:49.376Z,11.70
2022-09-28T12:01:46.187Z,11.70
2022-09-28T12:04:51.196Z,11.70
2022-09-28T12:07:27.289Z,11.70
2022-09-28T12:09:57.629Z,11.70
2022-09-28T12:12:34.747Z,11.70
2022-09-28T12:15:21.687Z,11.80
2022-09-28T12:17:56.017Z,11.80
2022-09-28T12:20:28.626Z,11.70
2022-09-28T12:23:19.296Z,11.70
2022-09-28T12:25:55.213Z,11.70
2022-09-28T12:28:37.822Z,11.60
2022-09-28T12:31:37.784Z,11.60
2022-09-28T12:34:05.927Z,11.60
2022-09-28T12:36:41.617Z,11.60
2022-09-28T12:39:40.943Z,11.70
2022-09-28T12:42:56.199Z,11.70
2022-09-28T12:45:38.468Z,11.70
2022-09-28T12:48:26.199Z,11.80
2022-09-28T12:51:12.029Z,11.90
2022-09-28T12:53:59.933Z,11.90
2022-09-28T12:56:48.698Z,12.00
2022-09-28T12:59:21.771Z,12.10
2022-09-28T13:01:51.848Z,12.10
2022-09-28T13:04:44.272Z,12.20
2022-09-28T13:07:20.549Z,12.20
2022-09-28T13:10:01.818Z,12.20
2022-09-28T13:12:44.247Z,12.20
2022-09-28T13:15:32.338Z,12.30
2022-09-28T13:18:12.070Z,12.30
2022-09-28T13:20:42.542Z,12.30
2022-09-28T13:23:12.713Z,12.30
2022-09-28T13:25:43.935Z,12.40
2022-09-28T13:28:13.681Z,12.40
2022-09-28T13:30:42.018Z,12.50
2022-09-28T13:33:20.612Z,12.50
2022-09-28T13:35:47.949Z,12.60
2022-09-28T13:38:18.263Z,12.60
2022-09-28T13:41:04.256Z,12.60
2022-09-28T13:44:02.221Z,12.70
2022-09-28T13:46:41.615Z,12.70
2022-09-28T13:49:24.075Z,12.70
2022-09-28T13:52:07.110Z,12.70
2022-09-28T13:54:56.502Z,12.80
2022-09-28T13:57:41.896Z,12.80
2022-09-28T14:00:12.466Z,12.70
2022-09-28T14:03:13.401Z,12.70
2022-09-28T14:06:08.207Z,12.70
2022-09-28T14:08:56.118Z,12.70
2022-09-28T14:11:34.444Z,12.70
2022-09-28T14:14:11.994Z,12.70
2022-09-28T14:16:41.168Z,12.70
2022-09-28T14:19:10.782Z,12.70
2022-09-28T14:22:09.739Z,12.70
2022-09-28T14:24:45.918Z,12.70
2022-09-28T14:27:35.343Z,12.60
2022-09-28T14:30:16.697Z,12.60
2022-09-28T14:32:59.383Z,12.60
2022-09-28T14:35:33.296Z,12.60
2022-09-28T14:38:40.695Z,12.60
2022-09-28T14:41:10.931Z,12.70
2022-09-28T14:43:59.172Z,12.70
2022-09-28T14:46:32.378Z,12.70
2022-09-28T14:49:03.760Z,12.70
2022-09-28T14:51:30.906Z,12.60
2022-09-28T14:54:04.620Z,12.70
2022-09-28T14:56:58.060Z,12.60
2022-09-28T14:59:34.308Z,12.60
2022-09-28T15:02:12.506Z,12.60
2022-09-28T15:04:53.747Z,12.60
2022-09-28T15:07:23.798Z,12.60
2022-09-28T15:09:56.865Z,12.60
2022-09-28T15:12:29.455Z,12.60
2022-09-28T15:15:28.051Z,12.50
2022-09-28T15:18:12.415Z,12.50
2022-09-28T15:20:42.432Z,12.50
2022-09-28T15:23:32.574Z,12.50
2022-09-28T15:25:59.852Z,12.50
2022-09-28T15:28:27.108Z,12.50
2022-09-28T15:31:02.850Z,12.50
2022-09-28T15:33:55.325Z,12.50
2022-09-28T15:36:26.602Z,12.50
2022-09-28T15:38:57.663Z,12.40
2022-09-28T15:41:25.825Z,12.50
2022-09-28T15:44:13.273Z,12.50
2022-09-28T15:46:44.537Z,12.50
2022-09-28T15:49:38.744Z,12.50
2022-09-28T15:52:06.755Z,12.50
2022-09-28T15:54:44.531Z,12.50
2022-09-28T15:57:37.016Z,12.40
2022-09-28T16:00:29.969Z,12.40
2022-09-28T16:03:17.485Z,12.40
2022-09-28T16:05:51.282Z,12.40
2022-09-28T16:08:26.515Z,12.40
2022-09-28T16:11:12.155Z,12.30
2022-09-28T16:14:08.986Z,12.30
2022-09-28T16:16:50.901Z,12.30
2022-09-28T16:19:21.079Z,12.30
2022-09-28T16:21:51.328Z,12.30
2022-09-28T16:24:25.105Z,12.30
2022-09-28T16:27:03.039Z,12.30
2022-09-28T16:29:40.911Z,12.30
2022-09-28T16:32:26.400Z,12.30
2022-09-28T16:35:10.960Z,12.30
2022-09-28T16:37:45.561Z,12.30
2022-09-28T16:40:13.396Z,12.30
2022-09-28T16:42:48.673Z,12.30
2022-09-28T16:45:25.716Z,12.20
2022-09-28T16:47:56.709Z,12.30
2022-09-28T16:50:25.288Z,12.30
2022-09-28T16:53:35.907Z,12.30
2022-09-28T16:56:06.217Z,12.30
2022-09-28T16:58:34.004Z,12.30
2022-09-28T17:01:01.657Z,12.30
2022-09-28T17:03:29.518Z,12.30
2022-09-28T17:05:57.339Z,12.20
2022-09-28T17:08:27.732Z,12.20
2022-09-28T17:11:16.883Z,12.20
2022-09-28T17:13:46.186Z,12.20
2022-09-28T17:16:25.287Z,12.20
2022-09-28T17:19:01.040Z,12.20
2022-09-28T17:21:28.269Z,12.20
2022-09-28T17:23:55.755Z,12.10
2022-09-28T17:26:30.994Z,12.10
2022-09-28T17:29:01.989Z,12.10
2022-09-28T17:31:30.463Z,12.00
2022-09-28T17:33:58.412Z,12.00
2022-09-28T17:36:27.055Z,12.00
2022-09-28T17:38:54.461Z,12.00
2022-09-28T17:41:21.611Z,11.90
2022-09-28T17:43:49.957Z,12.00
2022-09-28T17:46:39.607Z,11.90
2022-09-28T17:49:10.373Z,11.90
2022-09-28T17:51:38.380Z,12.00
2022-09-28T17:54:08.192Z,12.00
2022-09-28T18:09:25.309Z,12.00
2022-09-28T18:12:00.660Z,12.00
2022-09-28T18:14:28.632Z,12.00
2022-09-28T18:16:56.251Z,12.00
2022-09-28T18:19:23.437Z,12.00
2022-09-28T18:21:50.537Z,12.00
2022-09-28T18:24:17.695Z,12.00
2022-09-28T18:26:47.610Z,12.00
2022-09-28T18:29:18.084Z,12.00
2022-09-28T18:31:45.197Z,12.00
2022-09-28T18:34:13.744Z,12.00
2022-09-28T18:36:51.445Z,12.00
2022-09-28T18:39:22.109Z,12.00
2022-09-28T18:41:49.559Z,12.00
2022-09-28T18:44:18.085Z,12.00
2022-09-28T18:46:49.779Z,12.00
2022-09-28T18:49:17.215Z,12.00
2022-09-28T18:51:44.617Z,12.00
2022-09-28T18:54:12.020Z,12.00
2022-09-28T18:56:39.629Z,12.00
2022-09-28T18:59:17.425Z,12.00
2022-09-28T19:01:44.779Z,12.00
2022-09-28T19:04:13.078Z,11.90
2022-09-28T19:06:42.624Z,11.90
2022-09-28T19:09:10.438Z,12.00
2022-09-28T19:11:40.530Z,11.90
2022-09-28T19:14:11.249Z,12.00
2022-09-28T19:16:38.550Z,12.00
2022-09-28T19:19:11.057Z,12.00
2022-09-28T19:21:38.770Z,11.90
2022-09-28T19:24:06.187Z,11.90
2022-09-28T19:26:34.326Z,12.00
2022-09-28T19:29:02.886Z,12.00
2022-09-28T19:31:35.995Z,12.00
2022-09-28T19:34:08.234Z,11.90
2022-09-28T19:36:36.634Z,12.00
2022-09-28T19:39:04.332Z,11.90
2022-09-28T19:41:43.485Z,11.90
2022-09-28T19:44:21.338Z,11.90
2022-09-28T19:46:48.644Z,11.90
2022-09-28T19:49:22.715Z,12.00
2022-09-28T19:52:11.457Z,12.00
2022-09-28T19:54:39.738Z,12.00
2022-09-28T19:57:10.758Z,12.00
2022-09-28T19:59:38.553Z,12.00
2022-09-28T20:02:07.182Z,12.00
2022-09-28T20:04:34.675Z,12.00
2022-09-28T20:07:02.064Z,12.00
2022-09-28T20:09:29.653Z,12.00
2022-09-28T20:11:57.335Z,12.00
2022-09-28T20:14:26.424Z,12.00
2022-09-28T20:16:57.813Z,12.00
2022-09-28T20:19:24.980Z,12.00
2022-09-28T20:21:52.352Z,12.00
2022-09-28T20:24:19.464Z,12.00
2022-09-28T20:27:12.039Z,12.00
2022-09-28T20:29:39.383Z,12.00
2022-09-28T20:32:06.561Z,12.00
2022-09-28T20:34:34.107Z,12.00
2022-09-28T20:37:01.725Z,12.00
2022-09-28T20:39:29.314Z,12.00
2022-09-28T20:41:57.493Z,12.00
2022-09-28T20:44:24.899Z,12.00
2022-09-28T20:46:52.402Z,12.00
2022-09-28T20:49:19.566Z,12.00
2022-09-28T20:51:46.897Z,12.00
2022-09-28T20:54:14.201Z,12.00
2022-09-28T20:56:41.418Z,12.00
2022-09-28T20:59:11.217Z,12.00
2022-09-28T21:01:38.878Z,12.00
2022-09-28T21:04:07.596Z,12.00
2022-09-28T21:06:37.257Z,12.00
2022-09-28T21:09:07.161Z,12.00
2022-09-28T21:11:35.840Z,12.00
2022-09-28T21:14:05.782Z,12.10
2022-09-28T21:16:34.844Z,12.00
2022-09-28T21:19:02.086Z,12.00
2022-09-28T21:21:29.467Z,12.10
2022-09-28T21:23:57.683Z,12.00
2022-09-28T21:26:27.510Z,12.00
2022-09-28T21:28:56.472Z,12.10
2022-09-28T21:31:28.756Z,12.10
2022-09-28T21:33:57.228Z,12.10
2022-09-28T21:36:25.032Z,12.10
2022-09-28T21:38:53.588Z,12.10
2022-09-28T21:41:20.710Z,12.10
2022-09-28T21:43:48.058Z,12.20
2022-09-28T21:46:15.383Z,12.10
2022-09-28T21:48:42.639Z,12.10
2022-09-28T21:51:14.631Z,12.10
2022-09-28T21:53:42.393Z,12.20
2022-09-28T21:56:12.100Z,12.10
2022-09-28T21:58:40.216Z,12.20
2022-09-28T22:01:14.809Z,12.20
2022-09-28T22:03:44.149Z,12.20
2022-09-28T22:06:11.551Z,12.20
2022-09-28T22:08:39.372Z,12.20
2022-09-28T22:11:14.263Z,12.20
2022-09-28T22:13:44.064Z,12.10
2022-09-28T22:16:12.529Z,12.10
2022-09-28T22:18:40.026Z,12.20
2022-09-28T22:21:10.692Z,12.10
2022-09-28T22:23:39.150Z,12.10
2022-09-28T22:26:13.225Z,12.10
2022-09-28T22:28:46.008Z,12.10
2022-09-28T22:31:13.713Z,12.10
2022-09-28T22:33:41.101Z,12.10
2022-09-28T22:36:08.234Z,12.10
2022-09-28T22:38:35.476Z,12.20
2022-09-28T22:41:05.203Z,12.20
2022-09-28T22:43:32.460Z,12.20
2022-09-28T22:46:04.246Z,12.20
2022-09-28T22:48:31.817Z,12.20
2022-09-28T22:50:59.189Z,12.20
2022-09-28T22:53:26.633Z,12.20
2022-09-28T22:55:54.149Z,12.20
2022-09-28T22:58:21.516Z,12.20
2022-09-28T23:00:48.669Z,12.20
2022-09-28T23:03:16.180Z,12.20
2022-09-28T23:05:54.074Z,12.20
2022-09-28T23:08:21.817Z,12.10
2022-09-28T23:10:49.297Z,12.20
2022-09-28T23:13:16.713Z,12.20
2022-09-28T23:15:43.979Z,12.20
2022-09-28T23:18:11.204Z,12.10
2022-09-28T23:20:38.667Z,12.10
2022-09-28T23:23:05.811Z,12.10
2022-09-28T23:25:32.887Z,12.10
2022-09-28T23:28:00.115Z,12.10
2022-09-28T23:30:27.434Z,12.10
2022-09-28T23:32:54.713Z,12.10
2022-09-28T23:35:21.981Z,12.10
2022-09-28T23:37:52.252Z,12.10
2022-09-28T23:40:19.528Z,12.10
2022-09-28T23:42:46.619Z,12.10
2022-09-28T23:45:14.080Z,12.10
2022-09-28T23:47:41.230Z,12.10
2022-09-28T23:50:08.832Z,12.10
2022-09-28T23:52:35.942Z,12.00
2022-09-28T23:55:03.189Z,12.10
2022-09-28T23:57:30.548Z,12.00
2022-09-28T23:59:57.730Z,12.00
